createdAt,value
2018-02-09T00:01:27.950Z,90.70
2018-02-09T00:03:56.316Z,90.70
2018-02-09T00:06:24.617Z,90.70
2018-02-09T00:08:52.990Z,90.70
2018-02-09T00:11:21.294Z,90.70
2018-02-09T00:13:49.605Z,90.80
2018-02-09T00:16:17.928Z,90.70
2018-02-09T00:18:46.221Z,90.80
2018-02-09T00:21:14.523Z,90.70
2018-02-09T00:23:42.843Z,90.50
2018-02-09T00:26:11.958Z,90.80
2018-02-09T00:28:40.315Z,90.60
2018-02-09T00:31:09.393Z,90.50
2018-02-09T00:33:37.707Z,90.50
2018-02-09T00:36:06.783Z,90.60
2018-02-09T00:38:35.136Z,90.60
2018-02-09T00:41:03.452Z,90.60
2018-02-09T00:43:31.763Z,90.60
2018-02-09T00:46:00.847Z,90.60
2018-02-09T00:48:29.908Z,90.60
2018-02-09T00:50:58.217Z,90.60
2018-02-09T00:53:26.531Z,90.50
2018-02-09T00:55:54.847Z,90.40
2018-02-09T00:58:23.176Z,90.50
2018-02-09T01:00:52.297Z,90.50
2018-02-09T01:03:20.661Z,90.50
2018-02-09T01:05:48.958Z,90.50
2018-02-09T01:08:18.059Z,90.70
2018-02-09T01:10:46.365Z,90.70
2018-02-09T01:13:14.715Z,90.60
2018-02-09T01:15:43.056Z,90.60
2018-02-09T01:18:12.223Z,90.60
2018-02-09T01:20:40.588Z,90.50
2018-02-09T01:23:08.913Z,90.50
2018-02-09T01:25:37.286Z,90.50
2018-02-09T01:28:05.577Z,90.50
2018-02-09T01:30:33.924Z,90.40
2018-02-09T01:33:02.993Z,90.50
2018-02-09T01:35:32.074Z,90.60
2018-02-09T01:38:00.383Z,90.60
2018-02-09T01:40:28.698Z,90.60
2018-02-09T01:42:56.991Z,90.70
2018-02-09T01:45:25.309Z,90.80
2018-02-09T01:47:53.851Z,91.00
2018-02-09T01:50:22.165Z,90.70
2018-02-09T01:52:50.511Z,90.70
2018-02-09T01:55:18.808Z,90.80
2018-02-09T01:57:47.131Z,90.70
2018-02-09T02:00:16.215Z,91.00
2018-02-09T02:02:44.519Z,90.90
2018-02-09T02:05:13.613Z,90.90
2018-02-09T02:07:42.726Z,90.80
2018-02-09T02:10:11.865Z,90.90
2018-02-09T02:12:40.329Z,90.90
2018-02-09T02:15:08.631Z,91.00
2018-02-09T02:17:36.933Z,91.00
2018-02-09T02:20:05.231Z,91.00
2018-02-09T02:22:34.063Z,91.00
2018-02-09T02:25:03.147Z,91.00
2018-02-09T02:27:31.463Z,91.00
2018-02-09T02:29:59.789Z,90.90
2018-02-09T02:32:28.117Z,90.90
2018-02-09T02:34:56.417Z,90.90
2018-02-09T02:37:24.734Z,90.90
2018-02-09T02:39:53.079Z,90.80
2018-02-09T02:42:21.409Z,90.80
2018-02-09T02:44:50.596Z,90.80
2018-02-09T02:47:18.926Z,90.80
2018-02-09T02:49:47.219Z,90.70
2018-02-09T02:52:15.574Z,90.60
2018-02-09T02:54:44.655Z,90.50
2018-02-09T02:57:12.985Z,90.50
2018-02-09T02:59:41.338Z,90.40
2018-02-09T03:02:10.404Z,90.40
2018-02-09T03:04:38.703Z,90.40
2018-02-09T03:07:07.038Z,90.30
2018-02-09T03:09:35.356Z,90.30
2018-02-09T03:12:03.672Z,90.30
2018-02-09T03:14:32.788Z,90.20
2018-02-09T03:17:01.081Z,90.20
2018-02-09T03:19:29.386Z,90.20
2018-02-09T03:21:57.676Z,90.00
2018-02-09T03:24:25.965Z,90.00
2018-02-09T03:26:54.260Z,90.00
2018-02-09T03:29:22.587Z,89.80
2018-02-09T03:31:50.968Z,89.70
2018-02-09T03:34:19.283Z,89.50
2018-02-09T03:36:47.699Z,89.40
2018-02-09T03:39:16.771Z,89.30
2018-02-09T03:41:45.176Z,89.30
2018-02-09T03:44:13.501Z,89.30
2018-02-09T03:46:41.970Z,89.30
2018-02-09T03:49:10.292Z,89.10
2018-02-09T03:51:38.607Z,89.10
2018-02-09T03:54:06.933Z,89.00
2018-02-09T03:56:35.265Z,89.00
2018-02-09T03:59:03.616Z,89.50
2018-02-09T04:01:31.905Z,88.50
2018-02-09T04:04:00.211Z,88.40
2018-02-09T04:06:28.545Z,88.40
2018-02-09T04:08:56.853Z,88.20
2018-02-09T04:11:25.175Z,88.20
2018-02-09T04:13:54.273Z,88.00
2018-02-09T04:16:23.383Z,88.20
2018-02-09T04:18:52.517Z,88.00
2018-02-09T04:21:20.853Z,88.00
2018-02-09T04:23:49.934Z,88.70
2018-02-09T04:26:18.257Z,88.00
2018-02-09T04:28:46.560Z,88.00
2018-02-09T04:31:14.882Z,87.80
2018-02-09T04:33:43.235Z,87.80
2018-02-09T04:36:11.533Z,87.80
2018-02-09T04:38:39.863Z,87.90
2018-02-09T04:41:09.013Z,88.00
2018-02-09T04:43:37.341Z,88.20
2018-02-09T04:46:06.442Z,88.10
2018-02-09T04:48:35.536Z,88.30
2018-02-09T04:51:04.605Z,88.40
2018-02-09T04:53:32.907Z,88.30
2018-02-09T04:56:01.238Z,88.30
2018-02-09T04:58:29.580Z,88.30
2018-02-09T05:00:58.685Z,88.20
2018-02-09T05:03:27.769Z,88.20
2018-02-09T05:05:56.880Z,88.10
2018-02-09T05:08:25.943Z,88.10
2018-02-09T05:10:54.388Z,88.10
2018-02-09T05:13:22.727Z,88.00
2018-02-09T05:15:51.037Z,88.00
2018-02-09T05:18:20.097Z,87.90
2018-02-09T05:20:48.441Z,87.80
2018-02-09T05:23:16.741Z,87.90
2018-02-09T05:25:45.108Z,88.00
2018-02-09T05:28:13.463Z,88.00
2018-02-09T05:30:41.776Z,88.10
2018-02-09T05:33:10.153Z,88.80
2018-02-09T05:35:38.451Z,88.10
2018-02-09T05:38:07.537Z,87.90
2018-02-09T05:40:35.836Z,87.80
2018-02-09T05:43:04.150Z,87.70
2018-02-09T05:45:32.473Z,87.80
2018-02-09T05:48:00.793Z,87.90
2018-02-09T05:50:29.101Z,87.80
2018-02-09T05:52:58.165Z,88.30
2018-02-09T05:55:26.571Z,87.80
2018-02-09T05:57:54.883Z,87.70
2018-02-09T06:00:23.212Z,87.50
2018-02-09T06:02:51.569Z,87.60
2018-02-09T06:05:19.887Z,87.60
2018-02-09T06:07:48.917Z,87.60
2018-02-09T06:10:18.652Z,87.40
2018-02-09T06:12:46.971Z,87.40
2018-02-09T06:15:15.288Z,87.20
2018-02-09T06:17:44.382Z,87.20
2018-02-09T06:20:12.682Z,87.10
2018-02-09T06:22:41.750Z,87.00
2018-02-09T06:25:10.077Z,87.00
2018-02-09T06:27:38.364Z,87.00
2018-02-09T06:30:07.279Z,86.90
2018-02-09T06:32:35.583Z,86.90
2018-02-09T06:35:03.914Z,86.70
2018-02-09T06:37:32.971Z,86.80
2018-02-09T06:40:01.290Z,86.80
2018-02-09T06:42:30.373Z,86.80
2018-02-09T06:44:59.478Z,86.80
2018-02-09T06:47:28.543Z,86.90
2018-02-09T06:49:56.853Z,86.80
2018-02-09T06:52:25.926Z,86.80
2018-02-09T06:54:54.225Z,86.80
2018-02-09T06:57:22.680Z,86.80
2018-02-09T06:59:50.992Z,86.80
2018-02-09T07:02:19.305Z,86.70
2018-02-09T07:04:47.628Z,86.70
2018-02-09T07:07:15.944Z,86.70
2018-02-09T07:09:44.269Z,86.70
2018-02-09T07:12:12.557Z,86.70
2018-02-09T07:14:40.861Z,87.40
2018-02-09T07:17:09.177Z,86.70
2018-02-09T07:19:38.256Z,86.50
2018-02-09T07:22:06.547Z,86.40
2018-02-09T07:24:34.838Z,86.30
2018-02-09T07:27:03.144Z,86.40
2018-02-09T07:29:31.472Z,86.50
2018-02-09T07:31:59.814Z,86.60
2018-02-09T07:34:28.796Z,86.50
2018-02-09T07:36:57.108Z,86.40
2018-02-09T07:39:25.420Z,86.50
2018-02-09T07:41:53.721Z,86.00
2018-02-09T07:44:22.028Z,86.30
2018-02-09T07:49:33.434Z,85.70
2018-02-09T07:52:02.517Z,85.70
2018-02-09T07:54:30.978Z,85.70
2018-02-09T07:56:59.398Z,85.70
2018-02-09T07:59:28.468Z,85.50
2018-02-09T08:01:56.778Z,85.40
2018-02-09T08:04:25.852Z,85.10
2018-02-09T08:06:54.204Z,85.10
2018-02-09T08:09:23.277Z,85.10
2018-02-09T08:11:52.363Z,84.30
2018-02-09T08:14:21.470Z,84.30
2018-02-09T08:16:50.578Z,83.90
2018-02-09T08:19:19.664Z,83.40
2018-02-09T08:21:48.752Z,83.20
2018-02-09T08:24:17.068Z,83.10
2018-02-09T08:26:45.402Z,82.70
2018-02-09T08:29:13.761Z,82.30
2018-02-09T08:31:42.076Z,81.60
2018-02-09T08:34:10.414Z,81.20
2018-02-09T08:36:38.740Z,81.00
2018-02-09T08:39:07.327Z,80.60
2018-02-09T08:41:35.656Z,80.60
2018-02-09T08:44:03.963Z,80.30
2018-02-09T08:46:32.281Z,80.20
2018-02-09T08:49:01.358Z,79.90
2018-02-09T08:51:29.672Z,80.40
2018-02-09T08:53:58.748Z,80.30
2018-02-09T08:56:27.076Z,80.20
2018-02-09T08:58:55.376Z,81.10
2018-02-09T09:01:23.710Z,80.70
2018-02-09T09:03:52.844Z,80.10
2018-02-09T09:06:21.170Z,80.00
2018-02-09T09:08:49.503Z,80.20
2018-02-09T09:11:17.830Z,80.10
2018-02-09T09:13:46.850Z,79.80
2018-02-09T09:16:15.923Z,79.40
2018-02-09T09:18:44.252Z,79.40
2018-02-09T09:21:13.379Z,79.40
2018-02-09T09:23:41.720Z,79.40
2018-02-09T09:26:10.812Z,79.00
2018-02-09T09:28:39.988Z,79.40
2018-02-09T09:31:08.362Z,78.60
2018-02-09T09:33:36.680Z,78.20
2018-02-09T09:36:05.772Z,77.50
2018-02-09T09:38:34.075Z,77.40
2018-02-09T09:41:03.173Z,77.10
2018-02-09T09:43:31.496Z,77.10
2018-02-09T09:45:59.855Z,77.30
2018-02-09T09:48:28.170Z,77.10
2018-02-09T09:50:56.490Z,77.10
2018-02-09T09:53:24.791Z,77.10
2018-02-09T09:55:53.866Z,75.70
2018-02-09T09:58:22.187Z,75.70
2018-02-09T10:00:50.515Z,75.50
2018-02-09T10:03:18.838Z,75.60
2018-02-09T10:05:47.154Z,75.70
2018-02-09T10:08:15.485Z,75.50
2018-02-09T10:10:44.548Z,74.70
2018-02-09T10:13:12.880Z,74.60
2018-02-09T10:15:41.308Z,73.50
2018-02-09T10:18:09.646Z,73.30
2018-02-09T10:20:38.708Z,73.10
2018-02-09T10:23:07.044Z,73.00
2018-02-09T10:25:35.424Z,72.60
2018-02-09T10:28:03.838Z,72.40
2018-02-09T10:30:32.142Z,72.40
2018-02-09T10:33:00.498Z,72.70
2018-02-09T10:35:28.826Z,72.50
2018-02-09T10:37:57.916Z,71.50
2018-02-09T10:40:26.285Z,71.50
2018-02-09T10:42:54.591Z,69.60
2018-02-09T10:45:23.657Z,70.70
2018-02-09T10:47:51.995Z,70.50
2018-02-09T10:50:20.520Z,70.20
2018-02-09T10:52:48.844Z,69.40
2018-02-09T10:55:17.919Z,68.70
2018-02-09T10:57:46.242Z,68.70
2018-02-09T11:00:14.552Z,68.50
2018-02-09T11:02:42.857Z,67.80
2018-02-09T11:05:11.192Z,67.80
2018-02-09T11:07:39.502Z,67.90
2018-02-09T11:10:13.512Z,68.10
2018-02-09T11:12:43.608Z,68.00
2018-02-09T11:15:11.939Z,67.50
2018-02-09T11:17:40.260Z,66.90
2018-02-09T11:20:08.880Z,67.10
2018-02-09T11:22:37.202Z,66.80
2018-02-09T11:25:07.072Z,66.60
2018-02-09T11:27:35.386Z,66.60
2018-02-09T11:30:03.738Z,66.40
2018-02-09T11:32:32.056Z,66.50
2018-02-09T11:35:00.375Z,66.40
2018-02-09T11:37:29.444Z,66.00
2018-02-09T11:39:59.271Z,66.30
2018-02-09T11:42:28.369Z,66.00
2018-02-09T11:44:56.820Z,65.90
2018-02-09T11:47:25.182Z,66.20
2018-02-09T11:49:53.503Z,65.80
2018-02-09T11:52:21.967Z,65.60
2018-02-09T11:54:50.318Z,65.40
2018-02-09T11:57:19.299Z,65.30
2018-02-09T11:59:48.359Z,66.00
2018-02-09T12:02:16.727Z,66.00
2018-02-09T12:04:45.076Z,65.90
2018-02-09T12:07:13.385Z,65.80
2018-02-09T12:09:41.723Z,65.40
2018-02-09T12:12:10.790Z,65.60
2018-02-09T12:14:39.130Z,65.60
2018-02-09T12:17:07.428Z,65.40
2018-02-09T12:19:35.731Z,65.20
2018-02-09T12:22:04.075Z,64.80
2018-02-09T12:24:32.383Z,64.70
2018-02-09T12:27:00.696Z,64.90
2018-02-09T12:29:30.445Z,64.50
2018-02-09T12:31:59.223Z,64.50
2018-02-09T12:34:28.357Z,63.70
2018-02-09T12:36:56.691Z,63.70
2018-02-09T12:39:25.846Z,64.00
2018-02-09T12:41:54.172Z,64.00
2018-02-09T12:44:22.500Z,64.20
2018-02-09T12:46:50.808Z,64.50
2018-02-09T12:49:19.141Z,63.80
2018-02-09T12:51:48.170Z,63.90
2018-02-09T12:54:16.484Z,63.80
2018-02-09T12:56:46.312Z,63.80
2018-02-09T12:59:14.650Z,63.70
2018-02-09T13:01:42.984Z,63.90
2018-02-09T13:04:12.067Z,64.40
2018-02-09T13:06:41.155Z,64.70
2018-02-09T13:09:09.571Z,64.20
2018-02-09T13:11:39.519Z,64.40
2018-02-09T13:14:07.853Z,64.40
2018-02-09T13:16:36.259Z,64.20
2018-02-09T13:19:05.338Z,64.30
2018-02-09T13:21:34.475Z,63.90
2018-02-09T13:24:32.680Z,64.20
2018-02-09T13:27:00.998Z,64.30
2018-02-09T13:29:30.172Z,64.20
2018-02-09T13:31:58.509Z,64.20
2018-02-09T13:34:26.808Z,63.80
2018-02-09T13:40:14.819Z,64.60
2018-02-09T13:42:43.121Z,64.80
2018-02-09T13:45:11.457Z,65.40
2018-02-09T13:47:40.520Z,65.10
2018-02-09T13:50:08.866Z,65.10
2018-02-09T13:52:37.173Z,64.90
2018-02-09T13:55:05.503Z,65.00
2018-02-09T13:57:34.602Z,65.70
2018-02-09T14:00:03.697Z,65.80
2018-02-09T14:02:32.810Z,65.70
2018-02-09T14:05:01.919Z,66.00
2018-02-09T14:07:30.255Z,66.00
2018-02-09T14:09:59.460Z,66.30
2018-02-09T14:12:27.758Z,66.30
2018-02-09T14:14:56.139Z,66.40
2018-02-09T14:17:24.456Z,66.90
2018-02-09T14:19:52.819Z,67.40
2018-02-09T14:22:21.911Z,68.10
2018-02-09T14:24:50.989Z,68.40
2018-02-09T14:27:19.318Z,68.40
2018-02-09T14:29:47.623Z,68.90
2018-02-09T14:32:15.929Z,69.20
2018-02-09T14:34:44.229Z,70.30
2018-02-09T14:37:13.309Z,72.50
2018-02-09T14:39:41.639Z,72.50
2018-02-09T14:42:09.957Z,73.50
2018-02-09T14:44:38.256Z,75.50
2018-02-09T14:47:07.070Z,75.60
2018-02-09T14:49:36.177Z,77.80
2018-02-09T14:52:05.252Z,78.80
2018-02-09T14:54:33.582Z,78.80
2018-02-09T14:57:02.012Z,79.60
2018-02-09T14:59:30.367Z,80.50
2018-02-09T15:01:58.680Z,81.30
2018-02-09T15:04:27.016Z,81.90
2018-02-09T15:06:55.351Z,82.50
2018-02-09T15:09:23.663Z,82.90
2018-02-09T15:11:51.989Z,83.10
2018-02-09T15:14:20.327Z,83.70
2018-02-09T15:16:48.692Z,84.30
2018-02-09T15:19:17.773Z,86.00
2018-02-09T15:21:46.130Z,86.00
2018-02-09T15:24:14.439Z,86.60
2018-02-09T15:26:42.802Z,87.30
2018-02-09T15:29:11.125Z,87.60
2018-02-09T15:31:40.189Z,88.40
2018-02-09T15:34:08.511Z,88.50
2018-02-09T15:36:37.598Z,89.00
2018-02-09T15:39:06.696Z,89.20
2018-02-09T15:41:35.784Z,89.20
2018-02-09T15:44:04.082Z,89.20
2018-02-09T15:46:33.157Z,89.60
2018-02-09T15:49:01.471Z,89.60
2018-02-09T15:51:30.561Z,90.10
2018-02-09T15:53:59.668Z,90.00
2018-02-09T15:56:28.765Z,90.10
2018-02-09T15:58:57.845Z,90.40
2018-02-09T16:01:26.175Z,90.40
2018-02-09T16:03:54.507Z,90.50
2018-02-09T16:06:22.825Z,90.60
2018-02-09T16:08:51.899Z,90.70
2018-02-09T16:11:21.017Z,90.80
2018-02-09T16:13:49.321Z,90.80
2018-02-09T16:16:17.637Z,90.80
2018-02-09T16:18:45.955Z,90.90
2018-02-09T16:21:15.025Z,91.10
2018-02-09T16:23:43.377Z,91.10
2018-02-09T16:26:11.709Z,91.10
2018-02-09T16:28:40.793Z,91.20
2018-02-09T16:31:09.121Z,91.20
2018-02-09T16:33:37.427Z,91.30
2018-02-09T16:36:05.747Z,91.40
2018-02-09T16:38:34.845Z,91.80
2018-02-09T16:41:03.165Z,91.80
2018-02-09T16:43:31.476Z,91.90
2018-02-09T16:45:59.837Z,92.00
2018-02-09T16:48:28.143Z,92.10
2018-02-09T16:50:56.503Z,92.20
2018-02-09T16:53:24.807Z,92.20
2018-02-09T16:55:53.158Z,92.40
2018-02-09T16:58:21.551Z,92.50
2018-02-09T17:00:49.873Z,92.60
2018-02-09T17:03:18.267Z,92.60
2018-02-09T17:05:46.569Z,92.60
2018-02-09T17:08:15.648Z,92.80
2018-02-09T17:10:44.747Z,92.80
2018-02-09T17:13:13.825Z,92.90
2018-02-09T17:15:42.123Z,92.90
2018-02-09T17:18:10.485Z,92.90
2018-02-09T17:20:38.796Z,93.00
2018-02-09T17:23:07.891Z,93.20
2018-02-09T17:25:36.212Z,93.20
2018-02-09T17:28:04.541Z,93.30
2018-02-09T17:30:32.920Z,93.40
2018-02-09T17:33:01.227Z,93.40
2018-02-09T17:35:30.294Z,93.50
2018-02-09T17:37:59.524Z,93.50
2018-02-09T17:40:29.343Z,93.50
2018-02-09T17:42:58.413Z,93.50
2018-02-09T17:45:27.416Z,93.50
2018-02-09T17:47:55.734Z,93.70
2018-02-09T17:50:24.859Z,93.80
2018-02-09T17:52:53.188Z,93.80
2018-02-09T17:55:21.513Z,93.80
2018-02-09T17:57:49.851Z,93.80
2018-02-09T18:00:18.155Z,94.00
2018-02-09T18:02:47.274Z,94.30
2018-02-09T18:05:15.582Z,94.30
2018-02-09T18:07:43.912Z,94.40
2018-02-09T18:10:13.029Z,94.50
2018-02-09T18:12:41.367Z,94.50
2018-02-09T18:15:10.462Z,94.50
2018-02-09T18:17:38.790Z,94.60
2018-02-09T18:20:07.121Z,94.70
2018-02-09T18:22:35.447Z,94.80
2018-02-09T18:25:04.533Z,94.90
2018-02-09T18:27:32.906Z,94.90
2018-02-09T18:30:01.225Z,95.00
2018-02-09T18:32:29.527Z,95.10
2018-02-09T18:34:57.974Z,95.10
2018-02-09T18:37:27.031Z,95.20
2018-02-09T18:39:55.396Z,95.20
2018-02-09T18:42:23.790Z,95.40
2018-02-09T18:44:52.075Z,95.40
2018-02-09T18:47:20.431Z,95.50
2018-02-09T18:49:49.551Z,95.70
2018-02-09T18:52:17.850Z,95.70
2018-02-09T18:54:46.900Z,95.70
2018-02-09T18:57:15.228Z,95.70
2018-02-09T18:59:43.560Z,95.80
2018-02-09T19:02:11.889Z,95.80
2018-02-09T19:04:40.275Z,95.90
2018-02-09T19:07:08.655Z,96.00
2018-02-09T19:09:36.959Z,96.00
2018-02-09T19:12:05.275Z,96.00
2018-02-09T19:14:33.704Z,96.00
2018-02-09T19:17:02.036Z,96.10
2018-02-09T19:19:30.386Z,96.00
2018-02-09T19:21:59.566Z,96.10
2018-02-09T19:24:27.974Z,96.10
2018-02-09T19:26:56.320Z,96.10
2018-02-09T19:29:24.667Z,96.10
2018-02-09T19:31:53.767Z,96.50
2018-02-09T19:34:22.070Z,96.20
2018-02-09T19:36:50.371Z,96.20
2018-02-09T19:39:19.496Z,96.30
2018-02-09T19:41:47.831Z,96.30
2018-02-09T19:44:16.133Z,96.40
2018-02-09T19:46:44.458Z,96.50
2018-02-09T19:49:13.561Z,96.50
2018-02-09T19:51:42.691Z,96.40
2018-02-09T19:54:11.034Z,96.50
2018-02-09T19:56:39.850Z,96.40
2018-02-09T19:59:08.265Z,96.60
2018-02-09T20:01:36.575Z,96.70
2018-02-09T20:04:04.891Z,96.70
2018-02-09T20:06:33.235Z,96.60
2018-02-09T20:09:01.572Z,97.00
2018-02-09T20:11:29.970Z,96.70
2018-02-09T20:13:58.302Z,96.80
2018-02-09T20:16:26.691Z,96.80
2018-02-09T20:18:55.782Z,96.80
2018-02-09T20:21:24.123Z,96.80
2018-02-09T20:23:52.436Z,96.90
2018-02-09T20:26:20.767Z,96.90
2018-02-09T20:28:49.671Z,96.90
2018-02-09T20:31:18.392Z,97.00
2018-02-09T20:33:46.733Z,97.00
2018-02-09T20:36:15.040Z,97.00
2018-02-09T20:38:43.343Z,96.90
2018-02-09T20:41:11.657Z,96.90
2018-02-09T20:43:40.829Z,97.00
2018-02-09T20:46:09.139Z,96.90
2018-02-09T20:48:38.208Z,96.80
2018-02-09T20:51:06.534Z,96.80
2018-02-09T20:53:34.843Z,96.90
2018-02-09T20:56:03.537Z,97.00
2018-02-09T20:58:31.862Z,96.70
2018-02-09T21:01:00.971Z,96.70
2018-02-09T21:03:30.176Z,96.70
2018-02-09T21:05:59.252Z,96.60
2018-02-09T21:08:27.678Z,96.60
2018-02-09T21:10:56.002Z,96.60
2018-02-09T21:13:24.330Z,96.60
2018-02-09T21:15:52.658Z,96.70
2018-02-09T21:18:20.992Z,96.80
2018-02-09T21:20:50.140Z,96.80
2018-02-09T21:23:18.441Z,96.80
2018-02-09T21:25:46.774Z,97.00
2018-02-09T21:28:15.082Z,97.00
2018-02-09T21:30:43.397Z,96.90
2018-02-09T21:33:11.750Z,96.90
2018-02-09T21:35:40.148Z,97.00
2018-02-09T21:38:08.484Z,97.00
2018-02-09T21:40:36.816Z,97.10
2018-02-09T21:43:05.972Z,97.30
2018-02-09T21:45:35.116Z,97.30
2018-02-09T21:48:04.212Z,97.40
2018-02-09T21:50:32.534Z,97.40
2018-02-09T21:53:00.833Z,97.60
2018-02-09T21:55:29.168Z,97.70
2018-02-09T21:57:57.470Z,97.80
2018-02-09T22:00:26.596Z,97.80
2018-02-09T22:02:55.696Z,97.80
2018-02-09T22:05:24.016Z,97.80
2018-02-09T22:07:52.336Z,97.80
2018-02-09T22:10:21.483Z,97.90
2018-02-09T22:12:49.804Z,98.00
2018-02-09T22:15:18.104Z,98.00
2018-02-09T22:17:47.216Z,98.00
2018-02-09T22:20:15.570Z,98.00
2018-02-09T22:22:44.654Z,98.00
2018-02-09T22:25:12.964Z,98.00
2018-02-09T22:27:41.297Z,98.00
2018-02-09T22:30:09.614Z,98.00
2018-02-09T22:32:38.708Z,98.00
2018-02-09T22:35:07.856Z,98.00
2018-02-09T22:37:36.218Z,98.00
2018-02-09T22:40:04.542Z,98.20
2018-02-09T22:42:32.863Z,98.20
2018-02-09T22:45:01.955Z,98.30
2018-02-09T22:47:30.348Z,98.30
2018-02-09T22:49:59.443Z,98.20
2018-02-09T22:52:28.543Z,98.20
2018-02-09T22:54:57.638Z,98.20
2018-02-09T22:57:26.748Z,98.20
2018-02-09T22:59:55.875Z,98.20
2018-02-09T23:02:24.202Z,98.20
2018-02-09T23:04:52.513Z,98.10
2018-02-09T23:07:21.610Z,98.20
2018-02-09T23:09:50.715Z,98.10
2018-02-09T23:12:19.071Z,98.10
2018-02-09T23:14:47.381Z,98.00
2018-02-09T23:17:16.476Z,98.10
2018-02-09T23:19:45.569Z,98.10
2018-02-09T23:22:14.646Z,98.10
2018-02-09T23:24:42.954Z,98.10
2018-02-09T23:27:12.045Z,98.10
2018-02-09T23:29:40.366Z,98.10
2018-02-09T23:32:08.718Z,98.10
2018-02-09T23:34:37.811Z,98.20
2018-02-09T23:37:06.130Z,98.20
2018-02-09T23:39:34.536Z,98.20
2018-02-09T23:42:02.848Z,98.20
2018-02-09T23:44:31.945Z,98.50
2018-02-09T23:47:00.286Z,98.20
2018-02-09T23:49:28.572Z,98.20
2018-02-09T23:51:56.888Z,98.20
2018-02-09T23:54:25.400Z,98.20
2018-02-09T23:56:54.548Z,98.20
2018-02-09T23:59:22.870Z,98.20
